sensor_id;sensor_type;location;lat;lon;timestamp;P1;P2;P0
30713;PMS7003;17465;47.934;33.430;2023-11-18T00:00:39;77.50;60.25;35.25
30713;PMS7003;17465;47.934;33.430;2023-11-18T00:03:10;75.75;62.50;36.00
30713;PMS7003;17465;47.934;33.430;2023-11-18T00:05:40;80.25;62.50;36.75
30713;PMS7003;17465;47.934;33.430;2023-11-18T00:08:11;72.25;59.00;36.00
30713;PMS7003;17465;47.934;33.430;2023-11-18T00:10:41;84.00;66.00;38.00
30713;PMS7003;17465;47.934;33.430;2023-11-18T00:13:11;78.75;62.25;35.75
30713;PMS7003;17465;47.934;33.430;2023-11-18T00:15:42;85.50;67.00;39.75
30713;PMS7003;17465;47.934;33.430;2023-11-18T00:18:13;91.00;74.00;44.00
30713;PMS7003;17465;47.934;33.430;2023-11-18T00:20:43;89.50;70.25;42.00
30713;PMS7003;17465;47.934;33.430;2023-11-18T00:23:14;91.75;74.75;44.00
30713;PMS7003;17465;47.934;33.430;2023-11-18T00:25:52;96.75;81.50;42.75
30713;PMS7003;17465;47.934;33.430;2023-11-18T00:28:23;95.00;76.50;43.50
30713;PMS7003;17465;47.934;33.430;2023-11-18T00:30:59;100.50;82.00;44.75
30713;PMS7003;17465;47.934;33.430;2023-11-18T00:33:32;92.75;76.25;44.25
30713;PMS7003;17465;47.934;33.430;2023-11-18T00:36:05;91.00;69.50;42.25
30713;PMS7003;17465;47.934;33.430;2023-11-18T00:38:36;81.75;66.00;40.00
30713;PMS7003;17465;47.934;33.430;2023-11-18T00:41:07;81.00;63.25;36.00
30713;PMS7003;17465;47.934;33.430;2023-11-18T00:43:38;76.25;58.25;34.25
30713;PMS7003;17465;47.934;33.430;2023-11-18T00:46:08;69.75;53.75;35.00
30713;PMS7003;17465;47.934;33.430;2023-11-18T00:48:41;65.00;53.25;29.25
30713;PMS7003;17465;47.934;33.430;2023-11-18T00:51:16;69.50;55.00;31.50
30713;PMS7003;17465;47.934;33.430;2023-11-18T00:53:45;67.00;55.25;34.75
30713;PMS7003;17465;47.934;33.430;2023-11-18T00:56:17;74.00;57.50;31.00
30713;PMS7003;17465;47.934;33.430;2023-11-18T00:58:56;73.00;60.50;36.00
30713;PMS7003;17465;47.934;33.430;2023-11-18T01:01:28;79.25;61.75;37.25
30713;PMS7003;17465;47.934;33.430;2023-11-18T01:03:58;58.75;48.25;31.00
30713;PMS7003;17465;47.934;33.430;2023-11-18T01:06:29;72.75;57.75;34.25
30713;PMS7003;17465;47.934;33.430;2023-11-18T01:08:59;66.75;53.75;33.25
30713;PMS7003;17465;47.934;33.430;2023-11-18T01:11:41;66.25;53.75;31.25
30713;PMS7003;17465;47.934;33.430;2023-11-18T01:14:16;58.50;46.50;27.00
30713;PMS7003;17465;47.934;33.430;2023-11-18T01:16:46;51.50;43.75;26.25
30713;PMS7003;17465;47.934;33.430;2023-11-18T01:19:17;55.25;45.50;25.25
30713;PMS7003;17465;47.934;33.430;2023-11-18T01:21:47;53.75;47.00;27.50
30713;PMS7003;17465;47.934;33.430;2023-11-18T01:24:18;43.50;40.00;22.25
30713;PMS7003;17465;47.934;33.430;2023-11-18T01:26:48;48.25;38.50;22.75
30713;PMS7003;17465;47.934;33.430;2023-11-18T01:29:18;59.50;47.25;28.00
30713;PMS7003;17465;47.934;33.430;2023-11-18T01:31:48;50.50;43.50;25.25
30713;PMS7003;17465;47.934;33.430;2023-11-18T01:34:20;45.00;39.25;20.75
30713;PMS7003;17465;47.934;33.430;2023-11-18T01:36:51;55.00;44.75;21.00
30713;PMS7003;17465;47.934;33.430;2023-11-18T01:39:21;54.25;42.00;25.25
30713;PMS7003;17465;47.934;33.430;2023-11-18T01:41:52;37.25;36.00;19.75
30713;PMS7003;17465;47.934;33.430;2023-11-18T01:44:22;40.75;38.00;21.50
30713;PMS7003;17465;47.934;33.430;2023-11-18T01:46:52;39.67;37.00;22.00
30713;PMS7003;17465;47.934;33.430;2023-11-18T01:49:24;41.25;38.50;20.75
30713;PMS7003;17465;47.934;33.430;2023-11-18T01:52:03;40.25;36.00;19.25
30713;PMS7003;17465;47.934;33.430;2023-11-18T01:54:32;31.25;29.75;16.25
30713;PMS7003;17465;47.934;33.430;2023-11-18T01:57:15;33.00;30.25;18.50
30713;PMS7003;17465;47.934;33.430;2023-11-18T01:59:43;34.75;27.25;18.25
30713;PMS7003;17465;47.934;33.430;2023-11-18T02:02:14;31.00;28.00;16.25
30713;PMS7003;17465;47.934;33.430;2023-11-18T02:04:45;33.25;31.75;17.50
30713;PMS7003;17465;47.934;33.430;2023-11-18T02:07:15;33.25;29.50;16.75
30713;PMS7003;17465;47.934;33.430;2023-11-18T02:09:46;32.00;31.25;16.25
30713;PMS7003;17465;47.934;33.430;2023-11-18T02:15:17;39.75;34.75;20.75
30713;PMS7003;17465;47.934;33.430;2023-11-18T02:17:53;43.75;39.00;23.00
30713;PMS7003;17465;47.934;33.430;2023-11-18T02:20:25;42.25;39.00;19.00
30713;PMS7003;17465;47.934;33.430;2023-11-18T02:22:58;61.50;49.00;27.25
30713;PMS7003;17465;47.934;33.430;2023-11-18T02:25:29;53.50;41.75;22.25
30713;PMS7003;17465;47.934;33.430;2023-11-18T02:28:02;56.00;46.50;28.00
30713;PMS7003;17465;47.934;33.430;2023-11-18T02:30:32;49.25;41.75;22.75
30713;PMS7003;17465;47.934;33.430;2023-11-18T02:33:09;46.50;41.50;25.25
30713;PMS7003;17465;47.934;33.430;2023-11-18T02:35:54;43.50;38.25;23.50
30713;PMS7003;17465;47.934;33.430;2023-11-18T02:38:38;46.75;41.75;23.25
30713;PMS7003;17465;47.934;33.430;2023-11-18T02:41:10;48.75;42.75;24.25
30713;PMS7003;17465;47.934;33.430;2023-11-18T02:43:42;49.50;39.00;21.25
30713;PMS7003;17465;47.934;33.430;2023-11-18T02:46:12;54.75;47.00;28.50
30713;PMS7003;17465;47.934;33.430;2023-11-18T02:48:43;49.75;43.75;24.00
30713;PMS7003;17465;47.934;33.430;2023-11-18T02:51:14;67.00;51.00;28.00
30713;PMS7003;17465;47.934;33.430;2023-11-18T02:53:44;57.25;47.75;26.50
30713;PMS7003;17465;47.934;33.430;2023-11-18T02:56:15;72.75;58.00;33.00
30713;PMS7003;17465;47.934;33.430;2023-11-18T02:58:50;63.75;52.50;30.25
30713;PMS7003;17465;47.934;33.430;2023-11-18T03:01:17;71.25;56.50;33.00
30713;PMS7003;17465;47.934;33.430;2023-11-18T03:03:48;71.50;55.25;30.50
30713;PMS7003;17465;47.934;33.430;2023-11-18T03:06:18;68.00;54.00;30.25
30713;PMS7003;17465;47.934;33.430;2023-11-18T03:08:49;60.50;43.75;25.25
30713;PMS7003;17465;47.934;33.430;2023-11-18T03:11:19;49.00;41.25;23.00
30713;PMS7003;17465;47.934;33.430;2023-11-18T03:13:49;41.00;32.75;16.75
30713;PMS7003;17465;47.934;33.430;2023-11-18T03:16:20;23.25;21.50;10.25
30713;PMS7003;17465;47.934;33.430;2023-11-18T03:18:50;33.75;29.75;17.25
30713;PMS7003;17465;47.934;33.430;2023-11-18T03:21:20;29.00;25.75;14.75
30713;PMS7003;17465;47.934;33.430;2023-11-18T03:23:51;30.75;25.25;13.50
30713;PMS7003;17465;47.934;33.430;2023-11-18T03:26:24;31.75;25.50;11.75
30713;PMS7003;17465;47.934;33.430;2023-11-18T03:28:54;24.00;23.00;10.50
30713;PMS7003;17465;47.934;33.430;2023-11-18T03:31:25;27.75;24.75;12.00
30713;PMS7003;17465;47.934;33.430;2023-11-18T03:33:55;27.00;24.75;11.50
30713;PMS7003;17465;47.934;33.430;2023-11-18T03:36:25;20.50;18.50;10.75
30713;PMS7003;17465;47.934;33.430;2023-11-18T03:38:55;30.00;26.50;14.00
30713;PMS7003;17465;47.934;33.430;2023-11-18T03:41:26;8.25;5.50;2.00
30713;PMS7003;17465;47.934;33.430;2023-11-18T03:43:56;22.75;19.50;10.75
30713;PMS7003;17465;47.934;33.430;2023-11-18T03:46:26;21.75;20.25;10.75
30713;PMS7003;17465;47.934;33.430;2023-11-18T03:48:57;26.25;22.25;11.00
30713;PMS7003;17465;47.934;33.430;2023-11-18T03:51:28;22.50;20.00;10.25
30713;PMS7003;17465;47.934;33.430;2023-11-18T03:53:58;24.25;19.50;10.50
30713;PMS7003;17465;47.934;33.430;2023-11-18T03:56:31;26.75;23.75;9.75
30713;PMS7003;17465;47.934;33.430;2023-11-18T03:59:01;22.00;17.00;7.75
30713;PMS7003;17465;47.934;33.430;2023-11-18T04:01:35;23.50;21.50;7.25
30713;PMS7003;17465;47.934;33.430;2023-11-18T04:04:05;13.25;13.25;3.00
30713;PMS7003;17465;47.934;33.430;2023-11-18T04:06:36;25.00;21.75;10.75
30713;PMS7003;17465;47.934;33.430;2023-11-18T04:09:06;17.50;17.50;7.25
30713;PMS7003;17465;47.934;33.430;2023-11-18T04:11:36;21.50;20.25;10.50
30713;PMS7003;17465;47.934;33.430;2023-11-18T04:14:07;27.50;24.75;10.75
30713;PMS7003;17465;47.934;33.430;2023-11-18T04:16:38;23.75;20.50;11.25
30713;PMS7003;17465;47.934;33.430;2023-11-18T04:19:09;20.50;15.25;3.00
30713;PMS7003;17465;47.934;33.430;2023-11-18T04:21:39;25.25;19.00;10.00
30713;PMS7003;17465;47.934;33.430;2023-11-18T04:24:09;24.00;23.25;10.00
30713;PMS7003;17465;47.934;33.430;2023-11-18T04:26:40;24.00;20.50;7.00
30713;PMS7003;17465;47.934;33.430;2023-11-18T04:29:12;23.00;17.00;6.00
30713;PMS7003;17465;47.934;33.430;2023-11-18T04:31:42;24.25;24.25;13.25
30713;PMS7003;17465;47.934;33.430;2023-11-18T04:34:13;29.50;26.00;11.50
30713;PMS7003;17465;47.934;33.430;2023-11-18T04:36:43;27.00;25.50;12.00
30713;PMS7003;17465;47.934;33.430;2023-11-18T04:39:17;29.25;27.00;15.50
30713;PMS7003;17465;47.934;33.430;2023-11-18T04:41:47;26.25;21.00;12.00
30713;PMS7003;17465;47.934;33.430;2023-11-18T04:44:17;27.50;21.00;10.00
30713;PMS7003;17465;47.934;33.430;2023-11-18T04:46:48;25.25;24.25;11.25
30713;PMS7003;17465;47.934;33.430;2023-11-18T04:49:21;23.50;21.75;12.00
30713;PMS7003;17465;47.934;33.430;2023-11-18T04:51:56;25.25;24.50;12.25
30713;PMS7003;17465;47.934;33.430;2023-11-18T04:54:24;23.25;19.50;10.00
30713;PMS7003;17465;47.934;33.430;2023-11-18T04:56:55;24.25;19.75;11.50
30713;PMS7003;17465;47.934;33.430;2023-11-18T04:59:25;25.25;22.00;10.50
30713;PMS7003;17465;47.934;33.430;2023-11-18T05:01:58;26.25;21.50;12.00
30713;PMS7003;17465;47.934;33.430;2023-11-18T05:04:29;28.25;25.50;11.75
30713;PMS7003;17465;47.934;33.430;2023-11-18T05:06:59;17.50;15.50;7.50
30713;PMS7003;17465;47.934;33.430;2023-11-18T05:09:29;24.00;21.25;10.75
30713;PMS7003;17465;47.934;33.430;2023-11-18T05:12:02;22.75;20.75;11.25
30713;PMS7003;17465;47.934;33.430;2023-11-18T05:14:38;19.00;16.25;4.50
30713;PMS7003;17465;47.934;33.430;2023-11-18T05:17:08;16.50;15.25;8.50
30713;PMS7003;17465;47.934;33.430;2023-11-18T05:19:39;22.50;21.00;11.00
30713;PMS7003;17465;47.934;33.430;2023-11-18T05:22:09;19.00;17.25;10.25
30713;PMS7003;17465;47.934;33.430;2023-11-18T05:24:40;21.25;19.75;10.00
30713;PMS7003;17465;47.934;33.430;2023-11-18T05:27:13;20.75;19.25;10.75
30713;PMS7003;17465;47.934;33.430;2023-11-18T05:29:44;21.00;17.00;11.00
30713;PMS7003;17465;47.934;33.430;2023-11-18T05:32:15;18.25;15.25;4.50
30713;PMS7003;17465;47.934;33.430;2023-11-18T05:34:47;7.75;7.75;5.50
30713;PMS7003;17465;47.934;33.430;2023-11-18T05:37:20;18.00;18.00;9.00
30713;PMS7003;17465;47.934;33.430;2023-11-18T05:39:51;18.25;18.25;9.50
30713;PMS7003;17465;47.934;33.430;2023-11-18T05:42:21;15.25;15.25;8.00
30713;PMS7003;17465;47.934;33.430;2023-11-18T05:44:52;14.25;13.75;8.50
30713;PMS7003;17465;47.934;33.430;2023-11-18T05:47:41;13.50;13.25;6.00
30713;PMS7003;17465;47.934;33.430;2023-11-18T05:50:12;16.50;13.00;7.00
30713;PMS7003;17465;47.934;33.430;2023-11-18T05:52:45;12.50;9.75;4.00
30713;PMS7003;17465;47.934;33.430;2023-11-18T05:55:17;17.25;14.50;6.75
30713;PMS7003;17465;47.934;33.430;2023-11-18T05:57:50;7.00;7.00;2.75
30713;PMS7003;17465;47.934;33.430;2023-11-18T06:00:32;5.50;5.50;2.25
30713;PMS7003;17465;47.934;33.430;2023-11-18T06:03:00;7.50;6.00;2.00
30713;PMS7003;17465;47.934;33.430;2023-11-18T06:05:34;6.00;6.00;2.50
30713;PMS7003;17465;47.934;33.430;2023-11-18T06:08:04;8.00;7.00;2.50
30713;PMS7003;17465;47.934;33.430;2023-11-18T06:10:35;5.50;5.00;2.50
30713;PMS7003;17465;47.934;33.430;2023-11-18T06:13:05;9.00;7.50;4.00
30713;PMS7003;17465;47.934;33.430;2023-11-18T06:15:36;5.00;5.00;1.25
30713;PMS7003;17465;47.934;33.430;2023-11-18T06:18:06;6.25;6.25;2.75
30713;PMS7003;17465;47.934;33.430;2023-11-18T06:20:36;6.25;6.25;5.00
30713;PMS7003;17465;47.934;33.430;2023-11-18T06:23:07;7.00;5.50;2.75
30713;PMS7003;17465;47.934;33.430;2023-11-18T06:25:37;5.25;5.25;2.00
30713;PMS7003;17465;47.934;33.430;2023-11-18T06:28:07;6.00;5.25;1.75
30713;PMS7003;17465;47.934;33.430;2023-11-18T06:30:38;7.00;7.00;2.00
30713;PMS7003;17465;47.934;33.430;2023-11-18T06:33:08;6.00;6.00;2.00
30713;PMS7003;17465;47.934;33.430;2023-11-18T06:35:38;6.25;4.50;2.00
30713;PMS7003;17465;47.934;33.430;2023-11-18T06:38:09;4.50;4.50;2.50
30713;PMS7003;17465;47.934;33.430;2023-11-18T06:40:39;5.25;4.50;2.75
30713;PMS7003;17465;47.934;33.430;2023-11-18T06:43:10;8.75;7.50;2.00
30713;PMS7003;17465;47.934;33.430;2023-11-18T06:45:43;12.00;9.50;5.00
30713;PMS7003;17465;47.934;33.430;2023-11-18T06:48:13;10.50;10.00;5.50
30713;PMS7003;17465;47.934;33.430;2023-11-18T06:50:44;3.00;3.00;0.00
30713;PMS7003;17465;47.934;33.430;2023-11-18T06:53:15;11.25;9.75;4.00
30713;PMS7003;17465;47.934;33.430;2023-11-18T06:55:45;9.50;9.50;5.00
30713;PMS7003;17465;47.934;33.430;2023-11-18T06:58:16;13.25;11.25;4.00
30713;PMS7003;17465;47.934;33.430;2023-11-18T07:00:46;16.75;12.00;5.00
30713;PMS7003;17465;47.934;33.430;2023-11-18T07:03:16;7.75;6.00;2.00
30713;PMS7003;17465;47.934;33.430;2023-11-18T07:05:47;11.50;11.50;5.75
30713;PMS7003;17465;47.934;33.430;2023-11-18T07:08:17;13.00;12.00;6.00
30713;PMS7003;17465;47.934;33.430;2023-11-18T07:10:49;12.25;12.25;7.25
30713;PMS7003;17465;47.934;33.430;2023-11-18T07:13:19;8.00;7.25;5.75
30713;PMS7003;17465;47.934;33.430;2023-11-18T07:15:51;10.00;10.00;6.00
30713;PMS7003;17465;47.934;33.430;2023-11-18T07:18:23;8.50;8.50;5.00
30713;PMS7003;17465;47.934;33.430;2023-11-18T07:20:54;7.00;7.00;2.25
30713;PMS7003;17465;47.934;33.430;2023-11-18T07:23:24;10.00;10.00;6.00
30713;PMS7003;17465;47.934;33.430;2023-11-18T07:25:55;16.25;13.25;7.00
30713;PMS7003;17465;47.934;33.430;2023-11-18T07:28:25;7.75;6.50;2.00
30713;PMS7003;17465;47.934;33.430;2023-11-18T07:30:56;11.50;8.50;5.00
30713;PMS7003;17465;47.934;33.430;2023-11-18T07:33:26;12.00;12.00;6.00
30713;PMS7003;17465;47.934;33.430;2023-11-18T07:35:57;25.75;24.25;16.50
30713;PMS7003;17465;47.934;33.430;2023-11-18T07:38:34;86.20;81.20;75.40
30713;PMS7003;17465;47.934;33.430;2023-11-18T07:41:25;93.50;87.75;83.50
30713;PMS7003;17465;47.934;33.430;2023-11-18T07:44:18;81.00;68.75;62.50
30713;PMS7003;17465;47.934;33.430;2023-11-18T07:46:55;152.00;151.40;147.20
30713;PMS7003;17465;47.934;33.430;2023-11-18T07:49:21;92.00;81.50;78.25
30713;PMS7003;17465;47.934;33.430;2023-11-18T07:52:01;89.75;80.00;82.25
30713;PMS7003;17465;47.934;33.430;2023-11-18T07:54:55;87.75;76.00;81.25
30713;PMS7003;17465;47.934;33.430;2023-11-18T07:57:26;96.75;94.00;88.25
30713;PMS7003;17465;47.934;33.430;2023-11-18T08:00:00;98.25;96.00;91.25
30713;PMS7003;17465;47.934;33.430;2023-11-18T08:02:31;98.50;93.25;89.25
30713;PMS7003;17465;47.934;33.430;2023-11-18T08:05:01;93.25;86.75;82.00
30713;PMS7003;17465;47.934;33.430;2023-11-18T08:07:38;110.00;103.00;99.40
30713;PMS7003;17465;47.934;33.430;2023-11-18T08:10:04;86.50;76.50;68.75
30713;PMS7003;17465;47.934;33.430;2023-11-18T08:12:39;68.75;57.50;53.25
30713;PMS7003;17465;47.934;33.430;2023-11-18T08:15:16;88.50;76.75;70.50
30713;PMS7003;17465;47.934;33.430;2023-11-18T08:21:12;63.00;52.50;47.00
30713;PMS7003;17465;47.934;33.430;2023-11-18T08:24:07;59.50;51.25;47.50
30713;PMS7003;17465;47.934;33.430;2023-11-18T08:27:09;68.75;57.75;53.00
30713;PMS7003;17465;47.934;33.430;2023-11-18T08:29:51;74.25;62.00;58.75
30713;PMS7003;17465;47.934;33.430;2023-11-18T08:32:24;70.00;58.25;52.25
30713;PMS7003;17465;47.934;33.430;2023-11-18T08:34:55;84.50;70.75;69.25
30713;PMS7003;17465;47.934;33.430;2023-11-18T08:37:31;80.75;67.75;66.50
30713;PMS7003;17465;47.934;33.430;2023-11-18T08:40:07;84.00;70.50;71.50
30713;PMS7003;17465;47.934;33.430;2023-11-18T08:42:34;82.20;70.60;75.80
30713;PMS7003;17465;47.934;33.430;2023-11-18T08:45:06;73.75;60.50;59.00
30713;PMS7003;17465;47.934;33.430;2023-11-18T08:47:38;67.00;56.00;52.00
30713;PMS7003;17465;47.934;33.430;2023-11-18T08:50:10;86.00;73.75;74.75
30713;PMS7003;17465;47.934;33.430;2023-11-18T08:52:51;66.75;55.50;51.25
30713;PMS7003;17465;47.934;33.430;2023-11-18T08:55:33;76.75;66.25;62.50
30713;PMS7003;17465;47.934;33.430;2023-11-18T08:58:15;82.25;73.00;65.75
30713;PMS7003;17465;47.934;33.430;2023-11-18T09:00:42;70.50;59.25;57.25
30713;PMS7003;17465;47.934;33.430;2023-11-18T09:03:18;91.50;84.00;79.75
30713;PMS7003;17465;47.934;33.430;2023-11-18T09:05:57;105.50;103.00;95.75
30713;PMS7003;17465;47.934;33.430;2023-11-18T09:08:35;98.25;94.50;89.25
30713;PMS7003;17465;47.934;33.430;2023-11-18T09:11:14;109.50;107.00;100.50
30713;PMS7003;17465;47.934;33.430;2023-11-18T09:13:44;96.25;91.75;89.25
30713;PMS7003;17465;47.934;33.430;2023-11-18T09:16:27;82.50;67.50;64.00
30713;PMS7003;17465;47.934;33.430;2023-11-18T09:18:53;88.50;77.75;75.25
30713;PMS7003;17465;47.934;33.430;2023-11-18T09:21:23;95.75;92.25;86.50
30713;PMS7003;17465;47.934;33.430;2023-11-18T09:23:53;106.50;104.25;97.50
30713;PMS7003;17465;47.934;33.430;2023-11-18T09:26:24;63.00;53.50;46.75
30713;PMS7003;17465;47.934;33.430;2023-11-18T09:28:54;69.25;57.50;54.00
30713;PMS7003;17465;47.934;33.430;2023-11-18T09:31:24;85.00;73.25;69.50
30713;PMS7003;17465;47.934;33.430;2023-11-18T09:33:55;89.25;81.00;75.00
30713;PMS7003;17465;47.934;33.430;2023-11-18T09:39:04;73.00;61.00;58.50
30713;PMS7003;17465;47.934;33.430;2023-11-18T09:41:34;74.25;62.00;57.75
30713;PMS7003;17465;47.934;33.430;2023-11-18T09:44:07;67.25;56.75;52.75
30713;PMS7003;17465;47.934;33.430;2023-11-18T09:46:41;67.25;57.00;55.25
30713;PMS7003;17465;47.934;33.430;2023-11-18T09:52:13;134.40;133.80;129.80
30713;PMS7003;17465;47.934;33.430;2023-11-18T09:57:32;82.25;68.50;67.75
30713;PMS7003;17465;47.934;33.430;2023-11-18T10:00:07;83.50;71.75;75.75
30713;PMS7003;17465;47.934;33.430;2023-11-18T10:02:39;100.25;92.00;86.50
30713;PMS7003;17465;47.934;33.430;2023-11-18T10:05:10;110.25;109.75;107.00
30713;PMS7003;17465;47.934;33.430;2023-11-18T10:07:44;96.00;90.75;86.25
30713;PMS7003;17465;47.934;33.430;2023-11-18T10:10:15;86.50;75.75;73.25
30713;PMS7003;17465;47.934;33.430;2023-11-18T10:12:48;81.00;65.25;60.50
30713;PMS7003;17465;47.934;33.430;2023-11-18T10:15:21;95.75;90.75;86.00
30713;PMS7003;17465;47.934;33.430;2023-11-18T10:17:52;111.50;108.00;102.00
30713;PMS7003;17465;47.934;33.430;2023-11-18T10:20:23;113.50;110.25;102.25
30713;PMS7003;17465;47.934;33.430;2023-11-18T10:23:36;92.00;85.25;83.00
30713;PMS7003;17465;47.934;33.430;2023-11-18T10:26:14;105.25;103.75;99.50
30713;PMS7003;17465;47.934;33.430;2023-11-18T10:29:31;95.50;89.50;83.75
30713;PMS7003;17465;47.934;33.430;2023-11-18T10:32:30;93.75;87.00;84.50
30713;PMS7003;17465;47.934;33.430;2023-11-18T10:34:56;100.50;98.25;94.00
30713;PMS7003;17465;47.934;33.430;2023-11-18T10:37:48;106.00;104.40;99.60
30713;PMS7003;17465;47.934;33.430;2023-11-18T10:40:22;83.00;69.25;66.25
30713;PMS7003;17465;47.934;33.430;2023-11-18T10:42:54;109.60;107.20;104.80
30713;PMS7003;17465;47.934;33.430;2023-11-18T10:45:24;93.75;88.25;85.75
30713;PMS7003;17465;47.934;33.430;2023-11-18T10:47:55;91.50;82.75;81.25
30713;PMS7003;17465;47.934;33.430;2023-11-18T10:50:26;97.75;96.25;92.50
30713;PMS7003;17465;47.934;33.430;2023-11-18T10:53:02;115.50;114.00;108.00
30713;PMS7003;17465;47.934;33.430;2023-11-18T10:55:43;113.60;113.00;109.20
30713;PMS7003;17465;47.934;33.430;2023-11-18T10:58:15;136.80;133.20;131.00
30713;PMS7003;17465;47.934;33.430;2023-11-18T11:00:46;108.75;106.75;102.75
30713;PMS7003;17465;47.934;33.430;2023-11-18T11:03:18;117.00;117.00;110.25
30713;PMS7003;17465;47.934;33.430;2023-11-18T11:05:49;124.40;124.40;121.00
30713;PMS7003;17465;47.934;33.430;2023-11-18T11:08:24;127.00;127.00;125.00
30713;PMS7003;17465;47.934;33.430;2023-11-18T11:11:01;130.60;130.60;129.00
30713;PMS7003;17465;47.934;33.430;2023-11-18T11:13:34;115.25;114.00;110.00
30713;PMS7003;17465;47.934;33.430;2023-11-18T11:16:08;79.50;67.50;60.00
30713;PMS7003;17465;47.934;33.430;2023-11-18T11:18:48;48.25;43.00;34.75
30713;PMS7003;17465;47.934;33.430;2023-11-18T11:21:27;48.75;43.00;34.25
30713;PMS7003;17465;47.934;33.430;2023-11-18T11:24:06;64.25;55.50;47.75
30713;PMS7003;17465;47.934;33.430;2023-11-18T11:26:52;52.00;46.25;35.50
30713;PMS7003;17465;47.934;33.430;2023-11-18T11:29:40;44.00;39.75;31.00
30713;PMS7003;17465;47.934;33.430;2023-11-18T11:32:26;75.50;64.50;55.25
30713;PMS7003;17465;47.934;33.430;2023-11-18T11:35:02;81.00;69.00;63.25
30713;PMS7003;17465;47.934;33.430;2023-11-18T11:37:53;88.50;78.50;76.00
30713;PMS7003;17465;47.934;33.430;2023-11-18T11:40:23;99.00;95.00;93.75
30713;PMS7003;17465;47.934;33.430;2023-11-18T11:42:56;92.75;86.50;82.25
30713;PMS7003;17465;47.934;33.430;2023-11-18T11:45:38;78.50;64.75;62.00
30713;PMS7003;17465;47.934;33.430;2023-11-18T11:48:10;84.75;73.75;80.75
30713;PMS7003;17465;47.934;33.430;2023-11-18T11:53:47;116.20;112.80;107.00
30713;PMS7003;17465;47.934;33.430;2023-11-18T11:56:37;110.60;106.00;102.80
30713;PMS7003;17465;47.934;33.430;2023-11-18T11:58:55;72.50;62.00;62.25
30713;PMS7003;17465;47.934;33.430;2023-11-18T12:01:37;80.75;67.75;69.00
30713;PMS7003;17465;47.934;33.430;2023-11-18T12:04:17;76.50;63.75;63.00
30713;PMS7003;17465;47.934;33.430;2023-11-18T12:06:48;80.75;69.00;75.50
30713;PMS7003;17465;47.934;33.430;2023-11-18T12:09:18;88.75;79.75;72.75
30713;PMS7003;17465;47.934;33.430;2023-11-18T12:11:49;77.25;63.50;63.75
30713;PMS7003;17465;47.934;33.430;2023-11-18T12:14:23;81.75;69.75;68.00
30713;PMS7003;17465;47.934;33.430;2023-11-18T12:16:57;78.00;67.20;58.80
30713;PMS7003;17465;47.934;33.430;2023-11-18T12:19:50;69.50;57.00;53.00
30713;PMS7003;17465;47.934;33.430;2023-11-18T12:22:21;87.50;78.00;79.50
30713;PMS7003;17465;47.934;33.430;2023-11-18T12:35:33;44.25;37.00;28.75
30713;PMS7003;17465;47.934;33.430;2023-11-18T12:41:44;19.00;13.75;6.25
30713;PMS7003;17465;47.934;33.430;2023-11-18T12:44:29;18.25;18.25;9.00
30713;PMS7003;17465;47.934;33.430;2023-11-18T12:47:02;12.75;10.75;4.00
30713;PMS7003;17465;47.934;33.430;2023-11-18T12:49:37;21.00;20.25;8.00
30713;PMS7003;17465;47.934;33.430;2023-11-18T12:52:08;14.50;13.25;7.00
30713;PMS7003;17465;47.934;33.430;2023-11-18T12:54:44;22.50;19.00;9.00
30713;PMS7003;17465;47.934;33.430;2023-11-18T12:57:14;19.25;18.00;8.25
30713;PMS7003;17465;47.934;33.430;2023-11-18T12:59:45;21.75;21.25;7.50
30713;PMS7003;17465;47.934;33.430;2023-11-18T13:02:17;17.75;17.75;8.00
30713;PMS7003;17465;47.934;33.430;2023-11-18T13:04:51;13.75;13.25;3.00
30713;PMS7003;17465;47.934;33.430;2023-11-18T13:07:22;16.00;16.00;9.00
30713;PMS7003;17465;47.934;33.430;2023-11-18T13:09:55;20.50;19.50;10.75
30713;PMS7003;17465;47.934;33.430;2023-11-18T13:12:35;19.75;18.00;10.00
30713;PMS7003;17465;47.934;33.430;2023-11-18T13:15:25;19.25;15.50;6.00
30713;PMS7003;17465;47.934;33.430;2023-11-18T13:18:06;15.25;13.25;7.00
30713;PMS7003;17465;47.934;33.430;2023-11-18T13:20:32;20.00;20.00;11.00
30713;PMS7003;17465;47.934;33.430;2023-11-18T13:23:08;16.00;15.50;6.00
30713;PMS7003;17465;47.934;33.430;2023-11-18T13:25:38;11.75;10.75;7.25
30713;PMS7003;17465;47.934;33.430;2023-11-18T13:28:09;15.25;15.25;7.50
30713;PMS7003;17465;47.934;33.430;2023-11-18T13:30:39;8.00;8.00;5.00
30713;PMS7003;17465;47.934;33.430;2023-11-18T13:33:12;26.50;21.00;9.00
30713;PMS7003;17465;47.934;33.430;2023-11-18T13:35:47;19.75;19.75;10.00
30713;PMS7003;17465;47.934;33.430;2023-11-18T13:38:27;16.75;12.00;3.50
30713;PMS7003;17465;47.934;33.430;2023-11-18T13:40:57;17.75;17.75;8.25
30713;PMS7003;17465;47.934;33.430;2023-11-18T13:43:28;18.50;15.75;6.50
30713;PMS7003;17465;47.934;33.430;2023-11-18T13:46:14;18.75;16.50;6.75
30713;PMS7003;17465;47.934;33.430;2023-11-18T13:48:47;19.25;16.75;8.25
30713;PMS7003;17465;47.934;33.430;2023-11-18T13:51:18;14.50;14.50;6.75
30713;PMS7003;17465;47.934;33.430;2023-11-18T13:53:50;17.75;16.25;10.25
30713;PMS7003;17465;47.934;33.430;2023-11-18T13:56:21;19.75;18.50;9.75
30713;PMS7003;17465;47.934;33.430;2023-11-18T13:58:52;15.50;15.50;6.75
30713;PMS7003;17465;47.934;33.430;2023-11-18T14:01:24;7.50;5.25;2.00
30713;PMS7003;17465;47.934;33.430;2023-11-18T14:03:55;20.00;16.50;7.50
30713;PMS7003;17465;47.934;33.430;2023-11-18T14:06:27;19.00;16.00;7.00
30713;PMS7003;17465;47.934;33.430;2023-11-18T14:08:57;16.00;13.50;5.25
30713;PMS7003;17465;47.934;33.430;2023-11-18T14:11:31;9.75;7.75;1.00
30713;PMS7003;17465;47.934;33.430;2023-11-18T14:14:02;10.25;9.75;4.50
30713;PMS7003;17465;47.934;33.430;2023-11-18T14:16:33;17.75;16.25;9.25
30713;PMS7003;17465;47.934;33.430;2023-11-18T14:19:03;24.50;20.50;10.50
30713;PMS7003;17465;47.934;33.430;2023-11-18T14:21:35;15.50;13.00;7.25
30713;PMS7003;17465;47.934;33.430;2023-11-18T14:24:16;24.00;19.00;9.00
30713;PMS7003;17465;47.934;33.430;2023-11-18T14:26:46;23.75;19.25;9.25
30713;PMS7003;17465;47.934;33.430;2023-11-18T14:29:16;15.75;15.75;6.50
30713;PMS7003;17465;47.934;33.430;2023-11-18T14:31:46;10.75;10.50;5.00
30713;PMS7003;17465;47.934;33.430;2023-11-18T14:34:17;21.00;18.50;10.00
30713;PMS7003;17465;47.934;33.430;2023-11-18T14:36:49;23.75;19.50;9.00
30713;PMS7003;17465;47.934;33.430;2023-11-18T14:39:19;24.25;21.00;9.75
30713;PMS7003;17465;47.934;33.430;2023-11-18T14:41:49;23.25;19.75;10.75